createdAt,value
2019-03-08T00:00:01.738Z,1.30
2019-03-08T00:02:33.808Z,0.60
2019-03-08T00:05:04.243Z,0.70
2019-03-08T00:07:34.431Z,0.70
2019-03-08T00:10:04.738Z,1.10
2019-03-08T00:12:36.348Z,0.70
2019-03-08T00:15:06.857Z,0.97
2019-03-08T00:17:37.002Z,0.80
2019-03-08T00:20:08.519Z,0.77
2019-03-08T00:22:39.251Z,0.93
2019-03-08T00:25:09.616Z,0.60
2019-03-08T00:27:39.777Z,0.93
2019-03-08T00:30:09.989Z,0.60
2019-03-08T00:32:40.142Z,0.60
2019-03-08T00:35:10.349Z,0.83
2019-03-08T00:37:42.578Z,1.17
2019-03-08T00:40:12.722Z,0.57
2019-03-08T00:42:42.886Z,0.87
2019-03-08T00:45:18.825Z,0.70
2019-03-08T00:47:49.109Z,0.70
2019-03-08T00:50:19.311Z,1.10
2019-03-08T00:52:52.058Z,0.60
2019-03-08T00:55:22.527Z,0.40
2019-03-08T00:57:52.871Z,1.03
2019-03-08T01:00:25.869Z,0.60
2019-03-08T01:02:56.084Z,0.80
2019-03-08T01:05:26.169Z,2.40
2019-03-08T01:07:56.727Z,0.70
2019-03-08T01:10:28.307Z,0.70
2019-03-08T01:13:01.595Z,0.50
2019-03-08T01:15:35.755Z,0.60
2019-03-08T01:18:06.201Z,0.63
2019-03-08T01:20:36.407Z,0.87
2019-03-08T01:23:07.146Z,0.80
2019-03-08T01:25:37.543Z,0.60
2019-03-08T01:28:12.522Z,0.80
2019-03-08T01:30:43.646Z,0.67
2019-03-08T01:33:15.922Z,0.50
2019-03-08T01:35:46.078Z,0.70
2019-03-08T01:38:16.248Z,0.50
2019-03-08T01:40:46.486Z,0.70
2019-03-08T01:43:19.676Z,0.50
2019-03-08T01:45:50.007Z,0.50
2019-03-08T01:48:20.200Z,0.40
2019-03-08T01:50:50.303Z,0.60
2019-03-08T01:53:20.608Z,1.17
2019-03-08T01:55:51.127Z,0.37
2019-03-08T01:58:23.718Z,0.40
2019-03-08T02:00:53.957Z,0.40
2019-03-08T02:03:24.242Z,0.40
2019-03-08T02:05:54.639Z,0.40
2019-03-08T02:08:24.767Z,0.40
2019-03-08T02:10:54.918Z,0.40
2019-03-08T02:13:25.182Z,0.40
2019-03-08T02:15:55.420Z,0.40
2019-03-08T02:18:25.791Z,0.60
2019-03-08T02:21:06.250Z,0.30
2019-03-08T02:23:27.940Z,0.60
2019-03-08T02:25:58.248Z,0.43
2019-03-08T02:28:28.392Z,0.30
2019-03-08T02:30:58.636Z,0.40
2019-03-08T02:33:28.785Z,0.35
2019-03-08T02:35:59.041Z,0.30
2019-03-08T02:38:31.627Z,0.40
2019-03-08T02:41:02.020Z,0.40
2019-03-08T02:43:34.231Z,0.33
2019-03-08T02:46:06.165Z,0.40
2019-03-08T02:48:36.378Z,0.40
2019-03-08T02:51:08.635Z,0.30
2019-03-08T02:53:40.246Z,0.50
2019-03-08T02:56:12.043Z,0.40
2019-03-08T02:58:42.188Z,0.50
2019-03-08T03:01:12.384Z,0.40
2019-03-08T03:03:42.809Z,0.42
2019-03-08T03:06:12.961Z,0.40
2019-03-08T03:08:44.278Z,0.40
2019-03-08T03:11:14.421Z,0.40
2019-03-08T03:13:44.588Z,0.40
2019-03-08T03:16:14.713Z,0.70
2019-03-08T03:18:47.711Z,0.40
2019-03-08T03:21:18.027Z,0.40
2019-03-08T03:23:48.374Z,0.40
2019-03-08T03:26:18.704Z,0.40
2019-03-08T03:28:48.939Z,0.40
2019-03-08T03:31:19.430Z,0.40
2019-03-08T03:33:49.890Z,0.43
2019-03-08T03:36:20.098Z,0.40
2019-03-08T03:38:50.500Z,0.60
2019-03-08T03:41:21.071Z,0.40
2019-03-08T03:43:51.538Z,0.30
2019-03-08T03:46:22.085Z,0.40
2019-03-08T03:48:52.211Z,0.40
2019-03-08T03:51:26.156Z,0.50
2019-03-08T03:53:57.253Z,0.50
2019-03-08T03:56:27.569Z,0.40
2019-03-08T03:58:57.893Z,0.30
2019-03-08T04:01:35.549Z,0.43
2019-03-08T04:04:06.084Z,0.40
2019-03-08T04:06:36.931Z,0.40
2019-03-08T04:09:15.024Z,0.50
2019-03-08T04:11:45.309Z,0.50
2019-03-08T04:14:15.490Z,0.40
2019-03-08T04:16:46.988Z,0.40
2019-03-08T04:19:17.162Z,0.40
2019-03-08T04:21:47.433Z,0.40
2019-03-08T04:24:19.021Z,0.47
2019-03-08T04:26:49.323Z,0.30
2019-03-08T04:29:19.747Z,0.33
2019-03-08T04:31:50.989Z,0.30
2019-03-08T04:34:21.108Z,0.40
2019-03-08T04:36:51.260Z,0.30
2019-03-08T04:39:21.712Z,0.30
2019-03-08T04:41:53.322Z,0.50
2019-03-08T04:44:23.614Z,0.30
2019-03-08T04:46:54.707Z,0.37
2019-03-08T04:49:25.132Z,0.40
2019-03-08T04:51:56.338Z,0.50
2019-03-08T04:54:26.647Z,0.33
2019-03-08T04:56:56.784Z,0.40
2019-03-08T04:59:26.899Z,9.70
2019-03-08T05:01:57.144Z,0.80
2019-03-08T05:04:27.442Z,0.50
2019-03-08T05:06:58.297Z,0.40
2019-03-08T05:09:28.575Z,0.50
2019-03-08T05:11:58.918Z,0.40
2019-03-08T05:14:30.188Z,0.60
2019-03-08T05:17:00.436Z,0.50
2019-03-08T05:19:31.154Z,0.60
2019-03-08T05:22:01.573Z,0.40
2019-03-08T05:24:32.679Z,0.30
2019-03-08T05:27:03.137Z,0.30
2019-03-08T05:29:35.605Z,0.30
2019-03-08T05:32:06.189Z,11.50
2019-03-08T05:34:39.017Z,0.60
2019-03-08T05:37:09.609Z,0.43
2019-03-08T05:39:41.000Z,0.40
2019-03-08T05:42:11.161Z,0.50
2019-03-08T05:44:41.549Z,0.30
2019-03-08T05:47:11.730Z,0.40
2019-03-08T05:49:41.870Z,0.40
2019-03-08T05:52:12.486Z,0.50
2019-03-08T05:54:42.739Z,0.53
2019-03-08T05:57:13.033Z,0.50
2019-03-08T05:59:46.095Z,0.40
2019-03-08T06:02:19.344Z,0.60
2019-03-08T06:04:49.498Z,0.40
2019-03-08T06:07:19.866Z,0.47
2019-03-08T06:09:50.095Z,0.60
2019-03-08T06:12:20.529Z,0.40
2019-03-08T06:14:53.209Z,0.40
2019-03-08T06:17:23.501Z,0.30
2019-03-08T06:19:53.766Z,0.40
2019-03-08T06:22:26.070Z,0.50
2019-03-08T06:24:56.203Z,0.77
2019-03-08T06:27:26.456Z,0.50
2019-03-08T06:29:56.744Z,1.90
2019-03-08T06:32:30.003Z,0.60
2019-03-08T06:35:00.366Z,0.50
2019-03-08T06:37:31.080Z,0.70
2019-03-08T06:40:01.291Z,0.40
2019-03-08T06:42:31.507Z,0.40
2019-03-08T06:45:01.819Z,0.40
2019-03-08T06:47:32.453Z,0.40
2019-03-08T06:50:03.661Z,0.40
2019-03-08T06:52:33.947Z,0.50
2019-03-08T06:55:04.375Z,0.37
2019-03-08T06:57:39.168Z,0.60
2019-03-08T07:00:25.210Z,0.40
2019-03-08T07:02:58.754Z,0.53
2019-03-08T07:05:31.780Z,0.40
2019-03-08T07:08:05.582Z,0.40
2019-03-08T07:10:35.789Z,0.50
2019-03-08T07:13:06.168Z,0.40
2019-03-08T07:15:36.521Z,0.40
2019-03-08T07:18:12.935Z,0.70
2019-03-08T07:20:49.493Z,0.50
2019-03-08T07:23:39.136Z,0.40
2019-03-08T07:26:40.913Z,0.50
2019-03-08T07:29:16.053Z,0.50
2019-03-08T07:32:04.293Z,0.43
2019-03-08T07:34:52.207Z,0.50
2019-03-08T07:37:40.331Z,0.60
2019-03-08T07:40:29.494Z,0.40
2019-03-08T07:43:27.975Z,0.50
2019-03-08T07:46:16.560Z,4.70
2019-03-08T07:49:08.397Z,0.60
2019-03-08T07:52:00.519Z,0.50
2019-03-08T07:54:55.567Z,0.50
2019-03-08T07:57:58.956Z,0.50
2019-03-08T08:00:48.095Z,0.40
2019-03-08T08:03:32.575Z,0.53
2019-03-08T08:06:11.458Z,0.60
2019-03-08T08:09:00.638Z,0.50
2019-03-08T08:12:00.813Z,0.60
2019-03-08T08:14:50.330Z,0.70
2019-03-08T08:17:48.814Z,0.80
2019-03-08T08:20:43.887Z,0.63
2019-03-08T08:23:39.462Z,0.83
2019-03-08T08:26:26.158Z,0.60
2019-03-08T08:29:10.334Z,0.50
2019-03-08T08:32:08.633Z,0.73
2019-03-08T08:35:04.132Z,0.50
2019-03-08T08:38:02.803Z,0.50
2019-03-08T08:40:52.368Z,0.70
2019-03-08T08:43:31.453Z,0.73
2019-03-08T08:46:32.821Z,0.60
2019-03-08T08:49:17.850Z,0.90
2019-03-08T08:52:10.188Z,0.77
2019-03-08T08:55:02.939Z,0.77
2019-03-08T08:57:51.070Z,0.70
2019-03-08T09:00:42.859Z,0.80
2019-03-08T09:03:44.726Z,0.80
2019-03-08T09:06:32.782Z,0.60
2019-03-08T09:09:24.532Z,0.70
2019-03-08T09:12:12.749Z,0.70
2019-03-08T09:14:57.570Z,0.90
2019-03-08T09:17:38.336Z,0.77
2019-03-08T09:20:39.974Z,0.90
2019-03-08T09:23:23.111Z,0.97
2019-03-08T09:26:09.864Z,1.40
2019-03-08T09:28:51.079Z,0.97
2019-03-08T09:31:41.178Z,0.80
2019-03-08T09:34:30.563Z,1.00
2019-03-08T09:37:26.480Z,0.70
2019-03-08T09:40:18.958Z,0.80
2019-03-08T09:43:15.282Z,0.90
2019-03-08T09:46:05.219Z,0.70
2019-03-08T09:48:48.942Z,0.67
2019-03-08T09:51:47.655Z,0.60
2019-03-08T09:54:25.823Z,0.87
2019-03-08T09:57:17.457Z,1.33
2019-03-08T10:00:16.292Z,0.90
2019-03-08T10:03:11.487Z,0.90
2019-03-08T10:06:03.900Z,1.17
2019-03-08T10:08:52.884Z,0.87
2019-03-08T10:11:30.368Z,0.97
2019-03-08T10:14:33.929Z,0.90
2019-03-08T10:17:23.629Z,1.30
2019-03-08T10:20:22.090Z,0.67
2019-03-08T10:23:19.685Z,1.00
2019-03-08T10:26:09.376Z,0.80
2019-03-08T10:28:57.306Z,0.60
2019-03-08T10:31:35.294Z,0.60
2019-03-08T10:34:23.416Z,0.70
2019-03-08T10:37:20.440Z,0.50
2019-03-08T10:40:10.098Z,0.60
2019-03-08T10:43:03.313Z,0.60
2019-03-08T10:45:44.128Z,0.90
2019-03-08T10:48:25.972Z,0.70
2019-03-08T10:51:18.433Z,1.17
2019-03-08T10:54:24.032Z,0.90
2019-03-08T10:57:13.539Z,0.90
2019-03-08T11:00:02.917Z,0.90
2019-03-08T11:02:53.486Z,0.70
2019-03-08T11:05:35.095Z,0.77
2019-03-08T11:08:29.954Z,1.07
2019-03-08T11:11:24.100Z,0.80
2019-03-08T11:14:20.215Z,0.70
2019-03-08T11:17:07.022Z,0.80
2019-03-08T11:19:55.153Z,0.63
2019-03-08T11:22:35.200Z,0.80
2019-03-08T11:25:24.581Z,0.90
2019-03-08T11:28:23.458Z,1.10
2019-03-08T11:31:16.434Z,0.70
2019-03-08T11:33:57.634Z,0.70
2019-03-08T11:36:39.308Z,1.57
2019-03-08T11:39:46.092Z,0.93
2019-03-08T11:42:36.476Z,0.70
2019-03-08T11:45:16.983Z,0.50
2019-03-08T11:47:56.099Z,0.97
2019-03-08T11:50:54.544Z,0.87
2019-03-08T11:53:59.444Z,0.80
2019-03-08T11:57:03.776Z,0.80
2019-03-08T11:59:52.019Z,0.70
2019-03-08T12:02:39.874Z,0.80
2019-03-08T12:05:41.777Z,1.00
2019-03-08T12:08:39.882Z,1.30
2019-03-08T12:11:30.622Z,1.00
2019-03-08T12:14:29.187Z,0.60
2019-03-08T12:17:18.254Z,0.80
2019-03-08T12:19:56.980Z,0.87
2019-03-08T12:22:46.146Z,0.90
2019-03-08T12:25:37.815Z,0.93
2019-03-08T12:28:30.358Z,0.80
2019-03-08T12:31:19.864Z,1.17
2019-03-08T12:34:08.905Z,1.20
2019-03-08T12:36:57.055Z,0.90
2019-03-08T12:39:39.080Z,0.90
2019-03-08T12:42:46.802Z,0.90
2019-03-08T12:45:34.779Z,0.90
2019-03-08T12:48:42.802Z,1.10
2019-03-08T12:51:41.347Z,0.80
2019-03-08T12:54:29.700Z,1.00
2019-03-08T12:57:12.981Z,0.70
2019-03-08T13:00:02.196Z,0.83
2019-03-08T13:02:42.321Z,1.10
2019-03-08T13:05:34.418Z,1.13
2019-03-08T13:08:25.895Z,1.20
2019-03-08T13:10:58.780Z,1.30
2019-03-08T13:13:29.207Z,1.23
2019-03-08T13:15:59.827Z,1.40
2019-03-08T13:18:30.055Z,1.00
2019-03-08T13:21:00.211Z,0.57
2019-03-08T13:23:31.638Z,1.00
2019-03-08T13:26:02.058Z,0.83
2019-03-08T13:28:32.479Z,0.80
2019-03-08T13:31:02.999Z,1.17
2019-03-08T13:33:34.350Z,3.50
2019-03-08T13:36:04.814Z,0.70
2019-03-08T13:38:35.255Z,1.53
2019-03-08T13:41:05.646Z,1.17
2019-03-08T13:43:35.816Z,0.90
2019-03-08T13:46:06.072Z,1.57
2019-03-08T13:48:36.334Z,0.60
2019-03-08T13:51:06.609Z,0.70
2019-03-08T13:53:37.213Z,0.77
2019-03-08T13:56:07.758Z,1.03
2019-03-08T13:58:37.926Z,1.00
2019-03-08T14:01:08.089Z,0.80
2019-03-08T14:03:38.450Z,1.33
2019-03-08T14:06:11.475Z,1.10
2019-03-08T14:08:44.114Z,0.83
2019-03-08T14:11:14.905Z,1.20
2019-03-08T14:13:45.355Z,1.40
2019-03-08T14:16:17.153Z,2.20
2019-03-08T14:18:47.456Z,1.10
2019-03-08T14:21:17.809Z,0.90
2019-03-08T14:23:48.330Z,1.13
2019-03-08T14:26:18.770Z,0.80
2019-03-08T14:28:49.232Z,0.83
2019-03-08T14:31:45.321Z,0.87
2019-03-08T14:34:17.853Z,0.83
2019-03-08T14:36:49.860Z,0.90
2019-03-08T14:39:20.873Z,1.20
2019-03-08T14:42:03.691Z,1.33
2019-03-08T14:44:45.900Z,2.50
2019-03-08T14:47:29.323Z,1.53
2019-03-08T14:49:59.229Z,0.90
2019-03-08T14:52:30.080Z,1.20
2019-03-08T14:55:00.484Z,0.97
2019-03-08T14:57:30.833Z,0.90
2019-03-08T15:00:02.367Z,0.98
2019-03-08T15:02:32.887Z,0.60
2019-03-08T15:05:10.897Z,0.73
2019-03-08T15:07:37.330Z,1.10
2019-03-08T15:10:09.295Z,0.80
2019-03-08T15:12:48.332Z,1.07
2019-03-08T15:15:12.837Z,1.00
2019-03-08T15:17:44.726Z,0.97
2019-03-08T15:20:16.967Z,1.10
2019-03-08T15:22:48.546Z,0.80
2019-03-08T15:25:20.895Z,0.83
2019-03-08T15:27:54.093Z,0.80
2019-03-08T15:30:25.863Z,0.90
2019-03-08T15:32:56.031Z,1.10
2019-03-08T15:35:28.210Z,1.23
2019-03-08T15:37:58.374Z,1.20
2019-03-08T15:40:33.429Z,0.70
2019-03-08T15:43:04.041Z,0.67
2019-03-08T15:45:34.579Z,0.77
2019-03-08T15:48:04.785Z,0.60
2019-03-08T15:50:35.117Z,0.67
2019-03-08T15:53:07.001Z,0.77
2019-03-08T15:55:37.278Z,0.90
2019-03-08T15:58:07.442Z,0.97
2019-03-08T16:00:37.940Z,0.70
2019-03-08T16:03:08.219Z,1.00
2019-03-08T16:05:38.392Z,1.10
2019-03-08T16:08:11.455Z,0.77
2019-03-08T16:10:41.990Z,1.20
2019-03-08T16:13:12.606Z,0.70
2019-03-08T16:15:43.654Z,1.00
2019-03-08T16:18:14.140Z,0.87
2019-03-08T16:20:44.422Z,0.80
2019-03-08T16:23:14.696Z,0.87
2019-03-08T16:25:53.046Z,0.90
2019-03-08T16:28:23.408Z,1.30
2019-03-08T16:31:00.005Z,0.90
2019-03-08T16:33:41.535Z,1.20
2019-03-08T16:36:29.333Z,0.82
2019-03-08T16:39:06.932Z,1.03
2019-03-08T16:41:45.215Z,1.10
2019-03-08T16:44:34.826Z,0.90
2019-03-08T16:47:13.756Z,1.10
2019-03-08T16:49:53.867Z,1.00
2019-03-08T16:52:46.692Z,1.07
2019-03-08T16:55:36.853Z,0.70
2019-03-08T16:58:41.461Z,0.90
2019-03-08T17:01:38.773Z,0.70
2019-03-08T17:04:34.207Z,0.53
2019-03-08T17:07:23.970Z,0.70
2019-03-08T17:10:13.596Z,0.70
2019-03-08T17:13:06.395Z,1.00
2019-03-08T17:15:58.889Z,1.20
2019-03-08T17:18:51.139Z,0.93
2019-03-08T17:21:46.107Z,0.77
2019-03-08T17:24:25.510Z,0.73
2019-03-08T17:27:17.817Z,0.60
2019-03-08T17:30:10.012Z,1.13
2019-03-08T17:33:07.746Z,0.80
2019-03-08T17:36:12.238Z,1.47
2019-03-08T17:39:01.485Z,0.70
2019-03-08T17:42:01.343Z,0.93
2019-03-08T17:50:59.731Z,1.50
2019-03-08T17:54:01.689Z,0.90
2019-03-08T17:56:47.949Z,1.20
2019-03-08T17:59:46.975Z,2.00
2019-03-08T18:02:32.006Z,1.93
2019-03-08T18:05:23.004Z,1.40
2019-03-08T18:08:21.816Z,1.05
2019-03-08T18:11:16.299Z,1.20
2019-03-08T18:13:55.027Z,1.60
2019-03-08T18:16:44.277Z,1.23
2019-03-08T18:19:42.390Z,1.00
2019-03-08T18:22:21.622Z,1.70
2019-03-08T18:25:26.438Z,1.77
2019-03-08T18:28:14.899Z,1.30
2019-03-08T18:30:54.406Z,1.60
2019-03-08T18:33:43.789Z,1.50
2019-03-08T18:36:34.513Z,1.30
2019-03-08T18:39:10.753Z,1.30
2019-03-08T18:42:00.152Z,0.97
2019-03-08T18:44:52.247Z,1.20
2019-03-08T18:47:50.525Z,1.83
2019-03-08T18:50:43.079Z,1.40
2019-03-08T18:53:35.628Z,1.62
2019-03-08T18:56:22.555Z,1.80
2019-03-08T18:59:12.018Z,1.80
2019-03-08T19:02:10.834Z,2.30
2019-03-08T19:05:06.139Z,1.80
2019-03-08T19:07:54.458Z,1.47
2019-03-08T19:10:50.085Z,1.40
2019-03-08T19:13:35.485Z,2.27
2019-03-08T19:16:29.274Z,2.50
2019-03-08T19:19:13.111Z,2.03
2019-03-08T19:22:26.146Z,2.20
2019-03-08T19:25:14.688Z,2.60
2019-03-08T19:28:04.249Z,2.60
2019-03-08T19:30:59.733Z,2.50
2019-03-08T19:33:52.538Z,2.20
2019-03-08T19:36:46.996Z,2.13
2019-03-08T19:39:36.325Z,2.97
2019-03-08T19:42:25.711Z,3.00
2019-03-08T19:45:05.596Z,2.60
2019-03-08T19:47:55.219Z,3.25
2019-03-08T19:50:39.146Z,2.77
2019-03-08T19:53:20.808Z,2.90
2019-03-08T19:56:01.790Z,3.87
2019-03-08T19:59:09.184Z,2.13
2019-03-08T20:02:09.022Z,3.30
2019-03-08T20:05:01.154Z,2.93
2019-03-08T20:07:49.319Z,2.90
2019-03-08T20:10:37.616Z,3.57
2019-03-08T20:13:30.381Z,3.10
2019-03-08T20:16:25.870Z,3.17
2019-03-08T20:19:21.377Z,3.47
2019-03-08T20:22:03.046Z,2.77
2019-03-08T20:24:59.500Z,3.27
2019-03-08T20:27:48.854Z,2.60
2019-03-08T20:30:59.708Z,3.53
2019-03-08T20:33:45.220Z,2.93
2019-03-08T20:36:39.497Z,2.87
2019-03-08T20:39:27.362Z,3.27
2019-03-08T20:42:24.832Z,3.00
2019-03-08T20:45:15.976Z,2.77
2019-03-08T20:47:46.755Z,2.80
2019-03-08T20:50:20.043Z,2.80
2019-03-08T20:52:50.696Z,3.43
2019-03-08T20:55:20.883Z,2.40
2019-03-08T20:57:51.342Z,3.33
2019-03-08T21:00:23.762Z,2.90
2019-03-08T21:02:54.413Z,3.73
2019-03-08T21:05:25.086Z,7.33
2019-03-08T21:07:56.972Z,3.30
2019-03-08T21:10:27.359Z,3.20
2019-03-08T21:13:00.811Z,3.47
2019-03-08T21:15:31.407Z,3.73
2019-03-08T21:18:01.783Z,3.27
2019-03-08T21:20:32.029Z,3.50
2019-03-08T21:23:02.881Z,4.00
2019-03-08T21:25:33.245Z,3.20
2019-03-08T21:28:03.518Z,2.97
2019-03-08T21:30:33.818Z,3.50
2019-03-08T21:33:04.444Z,3.00
2019-03-08T21:35:35.249Z,3.30
2019-03-08T21:38:05.715Z,3.17
2019-03-08T21:40:36.073Z,3.43
2019-03-08T21:43:09.510Z,3.20
2019-03-08T21:45:39.708Z,4.80
2019-03-08T21:48:09.959Z,3.20
2019-03-08T21:50:40.320Z,2.52
2019-03-08T21:53:11.239Z,5.53
2019-03-08T21:55:41.450Z,9.03
2019-03-08T21:58:12.254Z,3.17
2019-03-08T22:00:42.647Z,3.50
2019-03-08T22:03:12.886Z,3.37
2019-03-08T22:05:43.359Z,4.03
2019-03-08T22:08:17.750Z,4.63
2019-03-08T22:10:53.931Z,4.03
2019-03-08T22:13:24.440Z,6.07
2019-03-08T22:15:57.543Z,4.97
2019-03-08T22:18:28.065Z,3.40
2019-03-08T22:20:58.607Z,3.50
2019-03-08T22:23:28.993Z,3.90
2019-03-08T22:25:59.246Z,4.10
2019-03-08T22:28:29.609Z,4.80
2019-03-08T22:30:59.865Z,3.40
2019-03-08T22:33:30.045Z,2.90
2019-03-08T22:36:00.194Z,3.00
2019-03-08T22:38:30.425Z,3.37
2019-03-08T22:41:00.894Z,3.13
2019-03-08T22:43:31.658Z,2.90
2019-03-08T22:46:02.142Z,3.37
2019-03-08T22:48:32.542Z,2.83
2019-03-08T22:51:04.327Z,2.75
2019-03-08T22:53:34.535Z,3.40
2019-03-08T22:56:06.220Z,3.87
2019-03-08T22:58:37.635Z,2.70
2019-03-08T23:01:12.818Z,3.20
2019-03-08T23:03:43.179Z,3.00
2019-03-08T23:06:16.091Z,2.67
2019-03-08T23:08:46.523Z,2.50
2019-03-08T23:11:17.161Z,2.47
2019-03-08T23:13:47.527Z,2.33
2019-03-08T23:16:17.876Z,1.30
2019-03-08T23:18:48.269Z,2.20
2019-03-08T23:21:18.406Z,2.23
2019-03-08T23:23:48.529Z,2.00
2019-03-08T23:26:18.839Z,2.30
2019-03-08T23:29:07.126Z,2.10
2019-03-08T23:31:41.222Z,2.60
2019-03-08T23:34:15.325Z,2.00
2019-03-08T23:36:45.722Z,2.53
2019-03-08T23:39:16.045Z,1.70
2019-03-08T23:41:46.201Z,2.30
2019-03-08T23:44:16.445Z,2.20
2019-03-08T23:46:46.686Z,1.90
2019-03-08T23:49:17.428Z,2.10
2019-03-08T23:51:48.191Z,2.17
2019-03-08T23:54:18.765Z,2.20
2019-03-08T23:56:51.197Z,1.93
2019-03-08T23:59:21.453Z,2.30
